createdAt,value
2023-04-09T00:01:11.430Z,100.00
2023-04-09T00:03:42.415Z,100.00
2023-04-09T00:06:15.146Z,100.00
2023-04-09T00:08:48.126Z,100.00
2023-04-09T00:11:18.198Z,100.00
2023-04-09T00:13:48.340Z,100.00
2023-04-09T00:16:18.380Z,100.00
2023-04-09T00:18:48.983Z,100.00
2023-04-09T00:21:19.288Z,100.00
2023-04-09T00:23:52.097Z,100.00
2023-04-09T00:26:24.414Z,100.00
2023-04-09T00:28:54.442Z,100.00
2023-04-09T00:31:24.518Z,100.00
2023-04-09T00:33:54.432Z,100.00
2023-04-09T00:36:26.663Z,100.00
2023-04-09T00:39:00.237Z,100.00
2023-04-09T00:41:30.306Z,100.00
2023-04-09T00:44:00.442Z,100.00
2023-04-09T00:46:30.526Z,100.00
2023-04-09T00:49:01.487Z,100.00
2023-04-09T00:51:31.712Z,100.00
2023-04-09T00:54:04.294Z,100.00
2023-04-09T00:56:34.648Z,100.00
2023-04-09T00:59:05.861Z,100.00
2023-04-09T01:01:36.391Z,100.00
2023-04-09T01:04:07.244Z,100.00
2023-04-09T01:06:45.962Z,100.00
2023-04-09T01:09:27.940Z,100.00
2023-04-09T01:12:09.169Z,100.00
2023-04-09T01:14:44.548Z,100.00
2023-04-09T01:17:22.057Z,100.00
2023-04-09T01:20:12.206Z,100.00
2023-04-09T01:23:00.658Z,100.00
2023-04-09T01:25:46.724Z,100.00
2023-04-09T01:28:22.510Z,100.00
2023-04-09T01:30:59.204Z,100.00
2023-04-09T01:33:32.585Z,100.00
2023-04-09T01:36:04.547Z,100.00
2023-04-09T01:38:36.563Z,100.00
2023-04-09T01:41:07.393Z,100.00
2023-04-09T01:43:41.260Z,100.00
2023-04-09T01:46:12.498Z,100.00
2023-04-09T01:48:43.059Z,100.00
2023-04-09T01:51:14.325Z,100.00
2023-04-09T01:53:45.042Z,100.00
2023-04-09T01:56:15.389Z,100.00
2023-04-09T01:58:48.391Z,100.00
2023-04-09T02:01:36.546Z,100.00
2023-04-09T02:04:12.956Z,100.00
2023-04-09T02:06:48.461Z,100.00
2023-04-09T02:09:21.587Z,100.00
2023-04-09T02:11:53.772Z,100.00
2023-04-09T02:14:28.935Z,100.00
2023-04-09T02:16:59.551Z,100.00
2023-04-09T02:19:42.309Z,100.00
2023-04-09T02:22:12.786Z,100.00
2023-04-09T02:24:43.497Z,100.00
2023-04-09T02:27:14.241Z,100.00
2023-04-09T02:29:47.765Z,100.00
2023-04-09T02:32:18.056Z,100.00
2023-04-09T02:34:48.755Z,100.00
2023-04-09T02:37:18.731Z,100.00
2023-04-09T02:39:50.724Z,100.00
2023-04-09T02:42:20.774Z,100.00
2023-04-09T02:44:53.428Z,100.00
2023-04-09T02:47:23.769Z,100.00
2023-04-09T02:49:53.805Z,100.00
2023-04-09T02:52:25.241Z,100.00
2023-04-09T02:54:55.770Z,100.00
2023-04-09T02:57:25.778Z,100.00
2023-04-09T02:59:58.606Z,100.00
2023-04-09T03:02:29.068Z,100.00
2023-04-09T03:04:59.200Z,100.00
2023-04-09T03:07:29.493Z,100.00
2023-04-09T03:09:59.836Z,100.00
2023-04-09T03:12:29.784Z,100.00
2023-04-09T03:15:02.513Z,100.00
2023-04-09T03:17:32.755Z,100.00
2023-04-09T03:20:02.755Z,100.00
2023-04-09T03:22:39.742Z,100.00
2023-04-09T03:25:22.096Z,100.00
2023-04-09T03:27:55.732Z,100.00
2023-04-09T03:30:48.630Z,100.00
2023-04-09T03:33:20.033Z,100.00
2023-04-09T03:36:04.281Z,100.00
2023-04-09T03:38:54.939Z,100.00
2023-04-09T03:41:30.355Z,100.00
2023-04-09T03:44:03.059Z,100.00
2023-04-09T03:46:42.443Z,100.00
2023-04-09T03:49:16.653Z,100.00
2023-04-09T03:51:47.956Z,100.00
2023-04-09T03:54:18.612Z,100.00
2023-04-09T03:56:49.540Z,100.00
2023-04-09T03:59:24.233Z,100.00
2023-04-09T04:01:57.601Z,100.00
2023-04-09T04:04:28.874Z,100.00
2023-04-09T04:07:01.212Z,100.00
2023-04-09T04:09:40.873Z,100.00
2023-04-09T04:12:15.383Z,100.00
2023-04-09T04:15:04.178Z,100.00
2023-04-09T04:17:59.504Z,100.00
2023-04-09T04:20:41.784Z,100.00
2023-04-09T04:23:15.904Z,100.00
2023-04-09T04:25:54.867Z,100.00
2023-04-09T04:28:31.895Z,100.00
2023-04-09T04:31:02.746Z,100.00
2023-04-09T04:33:38.691Z,100.00
2023-04-09T04:36:15.254Z,100.00
2023-04-09T04:38:50.816Z,100.00
2023-04-09T04:41:29.583Z,100.00
2023-04-09T04:44:11.207Z,100.00
2023-04-09T04:46:41.718Z,100.00
2023-04-09T04:49:14.306Z,100.00
2023-04-09T04:51:49.969Z,100.00
2023-04-09T04:54:20.759Z,100.00
2023-04-09T04:56:57.436Z,100.00
2023-04-09T04:59:41.880Z,100.00
2023-04-09T05:02:14.344Z,100.00
2023-04-09T05:05:05.687Z,100.00
2023-04-09T05:07:41.852Z,100.00
2023-04-09T05:10:13.424Z,100.00
2023-04-09T05:12:45.778Z,100.00
2023-04-09T05:15:22.869Z,100.00
2023-04-09T05:17:53.113Z,100.00
2023-04-09T05:20:26.023Z,100.00
2023-04-09T05:23:06.321Z,100.00
2023-04-09T05:25:42.740Z,100.00
2023-04-09T05:28:21.038Z,100.00
2023-04-09T05:30:56.341Z,100.00
2023-04-09T05:33:26.768Z,100.00
2023-04-09T05:35:59.653Z,100.00
2023-04-09T05:38:30.037Z,100.00
2023-04-09T05:41:02.374Z,100.00
2023-04-09T05:43:32.903Z,100.00
2023-04-09T05:46:03.078Z,100.00
2023-04-09T05:48:33.178Z,100.00
2023-04-09T05:51:07.610Z,94.75
2023-04-09T05:53:37.723Z,81.67
2023-04-09T05:56:16.378Z,78.60
2023-04-09T05:58:55.784Z,75.67
2023-04-09T06:01:26.046Z,74.15
2023-04-09T06:03:58.433Z,70.58
2023-04-09T06:06:34.537Z,72.10
2023-04-09T06:09:05.003Z,71.61
2023-04-09T06:11:35.633Z,68.06
2023-04-09T06:14:05.812Z,64.49
2023-04-09T06:16:36.684Z,67.10
2023-04-09T06:19:06.749Z,62.07
2023-04-09T06:21:40.813Z,59.69
2023-04-09T06:24:10.850Z,63.91
2023-04-09T06:26:40.961Z,66.65
2023-04-09T06:29:10.993Z,62.83
2023-04-09T06:31:41.141Z,61.28
2023-04-09T06:34:11.343Z,60.14
2023-04-09T06:36:44.700Z,65.13
2023-04-09T06:39:14.826Z,57.81
2023-04-09T06:41:44.925Z,57.78
2023-04-09T06:44:27.259Z,54.74
2023-04-09T06:46:57.269Z,55.77
2023-04-09T06:49:27.376Z,53.45
2023-04-09T06:52:00.075Z,52.62
2023-04-09T06:54:30.201Z,50.88
2023-04-09T06:57:00.181Z,51.71
2023-04-09T06:59:30.276Z,48.63
2023-04-09T07:02:00.761Z,49.14
2023-04-09T07:04:31.140Z,48.39
2023-04-09T07:07:03.964Z,51.30
2023-04-09T07:09:34.273Z,50.02
2023-04-09T07:12:04.648Z,47.99
2023-04-09T07:14:34.701Z,47.24
2023-04-09T07:17:05.018Z,46.80
2023-04-09T07:19:35.030Z,48.64
2023-04-09T07:22:09.878Z,47.51
2023-04-09T07:24:39.814Z,48.99
2023-04-09T07:27:10.889Z,48.96
2023-04-09T07:29:41.547Z,50.39
2023-04-09T07:32:11.744Z,49.52
2023-04-09T07:34:43.874Z,51.33
2023-04-09T07:37:17.044Z,49.24
2023-04-09T07:39:47.705Z,50.13
2023-04-09T07:42:18.154Z,52.59
2023-04-09T07:44:48.191Z,52.45
2023-04-09T07:47:18.544Z,51.76
2023-04-09T07:49:48.627Z,50.81
2023-04-09T07:52:21.311Z,48.31
2023-04-09T07:54:51.373Z,50.57
2023-04-09T07:57:21.309Z,50.96
2023-04-09T07:59:51.372Z,48.19
2023-04-09T08:02:22.177Z,48.06
2023-04-09T08:04:52.439Z,46.63
2023-04-09T08:07:25.516Z,46.18
2023-04-09T08:09:55.651Z,46.07
2023-04-09T08:12:26.058Z,44.16
2023-04-09T08:14:56.281Z,44.90
2023-04-09T08:17:26.553Z,44.57
2023-04-09T08:19:56.916Z,46.42
2023-04-09T08:22:29.478Z,45.98
2023-04-09T08:25:01.416Z,46.40
2023-04-09T08:27:33.509Z,45.17
2023-04-09T08:30:04.005Z,43.60
2023-04-09T08:32:34.327Z,41.14
2023-04-09T08:35:04.349Z,41.98
2023-04-09T08:37:36.954Z,41.26
2023-04-09T08:40:07.927Z,42.60
2023-04-09T08:42:39.809Z,42.67
2023-04-09T08:45:11.846Z,43.46
2023-04-09T08:47:44.649Z,43.32
2023-04-09T08:50:14.678Z,44.69
2023-04-09T08:52:50.366Z,42.68
2023-04-09T08:55:20.397Z,43.82
2023-04-09T08:57:50.423Z,42.74
2023-04-09T09:00:20.514Z,42.56
2023-04-09T09:03:07.281Z,41.40
2023-04-09T09:05:42.171Z,41.09
2023-04-09T09:08:16.840Z,40.49
2023-04-09T09:10:48.452Z,38.87
2023-04-09T09:13:25.714Z,39.20
2023-04-09T09:15:57.230Z,37.54
2023-04-09T09:18:42.244Z,38.12
2023-04-09T09:21:15.888Z,37.82
2023-04-09T09:23:51.311Z,39.25
2023-04-09T09:26:23.407Z,39.51
2023-04-09T09:28:55.025Z,39.16
2023-04-09T09:31:26.413Z,38.07
2023-04-09T09:33:57.225Z,39.96
2023-04-09T09:36:37.754Z,39.22
2023-04-09T09:39:13.166Z,39.84
2023-04-09T09:41:44.122Z,38.99
2023-04-09T09:44:35.688Z,38.71
2023-04-09T09:47:06.976Z,37.67
2023-04-09T09:49:37.239Z,37.25
2023-04-09T09:52:12.251Z,38.54
2023-04-09T09:54:46.425Z,36.96
2023-04-09T09:57:19.342Z,36.22
2023-04-09T09:59:56.907Z,39.32
2023-04-09T10:02:31.727Z,41.42
2023-04-09T10:05:04.438Z,41.80
2023-04-09T10:07:36.660Z,41.58
2023-04-09T10:10:13.908Z,38.60
2023-04-09T10:12:45.520Z,36.73
2023-04-09T10:15:16.081Z,36.30
2023-04-09T10:17:48.982Z,38.12
2023-04-09T10:20:22.738Z,37.86
2023-04-09T10:22:55.817Z,36.90
2023-04-09T10:25:29.655Z,38.59
2023-04-09T10:28:03.233Z,37.35
2023-04-09T10:30:37.553Z,34.52
2023-04-09T10:33:14.681Z,32.06
2023-04-09T10:35:45.430Z,32.28
2023-04-09T10:38:17.942Z,31.07
2023-04-09T10:40:54.845Z,33.76
2023-04-09T10:43:25.546Z,35.02
2023-04-09T10:45:55.902Z,36.57
2023-04-09T10:48:27.138Z,37.60
2023-04-09T10:50:58.433Z,38.98
2023-04-09T10:53:31.313Z,38.92
2023-04-09T10:56:04.319Z,38.83
2023-04-09T10:58:34.892Z,39.57
2023-04-09T11:01:05.536Z,40.18
2023-04-09T11:03:46.197Z,41.00
2023-04-09T11:06:18.809Z,40.28
2023-04-09T11:08:48.800Z,39.02
2023-04-09T11:11:21.862Z,37.03
2023-04-09T11:13:52.242Z,37.01
2023-04-09T11:16:24.310Z,37.90
2023-04-09T11:18:56.388Z,36.92
2023-04-09T11:21:31.876Z,36.12
2023-04-09T11:24:02.201Z,37.45
2023-04-09T11:26:40.570Z,36.47
2023-04-09T11:29:11.242Z,35.27
2023-04-09T11:31:41.284Z,36.70
2023-04-09T11:34:14.255Z,36.11
2023-04-09T11:36:44.273Z,35.77
2023-04-09T11:39:14.788Z,33.35
2023-04-09T11:41:48.071Z,32.41
2023-04-09T11:44:18.385Z,31.80
2023-04-09T11:46:49.375Z,33.48
2023-04-09T11:49:20.358Z,32.50
2023-04-09T11:51:51.049Z,32.29
2023-04-09T11:54:21.276Z,31.42
2023-04-09T11:56:56.519Z,31.22
2023-04-09T11:59:26.852Z,31.46
2023-04-09T12:01:57.099Z,31.36
2023-04-09T12:04:27.697Z,30.40
2023-04-09T12:07:02.043Z,29.52
2023-04-09T12:09:33.805Z,29.30
2023-04-09T12:12:11.913Z,28.28
2023-04-09T12:14:49.095Z,28.23
2023-04-09T12:17:18.983Z,29.90
2023-04-09T12:19:51.691Z,31.19
2023-04-09T12:22:21.645Z,32.81
2023-04-09T12:24:52.064Z,34.03
2023-04-09T12:27:24.893Z,33.83
2023-04-09T12:29:54.919Z,32.63
2023-04-09T12:32:24.992Z,31.67
2023-04-09T12:34:55.200Z,33.16
2023-04-09T12:37:25.597Z,33.55
2023-04-09T12:39:55.662Z,34.49
2023-04-09T12:42:28.292Z,34.60
2023-04-09T12:44:58.658Z,35.59
2023-04-09T12:47:29.184Z,35.45
2023-04-09T12:49:59.324Z,35.52
2023-04-09T12:52:29.383Z,36.31
2023-04-09T12:54:59.569Z,36.62
2023-04-09T12:57:32.485Z,37.75
2023-04-09T13:00:04.996Z,38.29
2023-04-09T13:02:35.074Z,38.11
2023-04-09T13:05:05.680Z,38.86
2023-04-09T13:07:36.007Z,36.79
2023-04-09T13:10:06.658Z,34.89
2023-04-09T13:12:39.417Z,32.47
2023-04-09T13:15:10.611Z,30.63
2023-04-09T13:17:43.883Z,31.35
2023-04-09T13:20:14.863Z,32.90
2023-04-09T13:22:49.163Z,33.43
2023-04-09T13:25:19.639Z,34.43
2023-04-09T13:27:52.306Z,33.85
2023-04-09T13:30:22.888Z,32.19
2023-04-09T13:32:53.299Z,31.62
2023-04-09T13:35:23.859Z,30.95
2023-04-09T13:37:53.824Z,30.52
2023-04-09T13:40:24.008Z,29.06
2023-04-09T13:42:56.927Z,28.30
2023-04-09T13:45:27.647Z,27.78
2023-04-09T13:47:57.885Z,29.52
2023-04-09T13:50:28.349Z,29.11
2023-04-09T13:52:58.622Z,29.53
2023-04-09T13:55:28.956Z,29.33
2023-04-09T13:58:01.856Z,27.74
2023-04-09T14:00:32.431Z,27.82
2023-04-09T14:03:03.408Z,27.47
2023-04-09T14:05:33.406Z,27.51
2023-04-09T14:08:04.008Z,26.63
2023-04-09T14:10:34.136Z,27.08
2023-04-09T14:13:10.632Z,26.44
2023-04-09T14:15:42.202Z,26.04
2023-04-09T14:18:12.259Z,26.51
2023-04-09T14:20:42.453Z,26.17
2023-04-09T14:23:13.005Z,26.55
2023-04-09T14:25:43.034Z,27.37
2023-04-09T14:28:15.977Z,28.42
2023-04-09T14:30:46.560Z,29.79
2023-04-09T14:33:16.495Z,29.48
2023-04-09T14:35:46.690Z,30.91
2023-04-09T14:38:17.974Z,31.62
2023-04-09T14:40:48.238Z,32.61
2023-04-09T14:43:21.446Z,33.14
2023-04-09T14:45:52.060Z,33.15
2023-04-09T14:48:22.357Z,33.75
2023-04-09T14:50:52.677Z,31.80
2023-04-09T14:53:22.788Z,29.37
2023-04-09T14:55:52.805Z,27.95
2023-04-09T14:58:25.796Z,27.45
2023-04-09T15:00:57.611Z,27.06
2023-04-09T15:03:32.061Z,25.64
2023-04-09T15:06:02.399Z,28.07
2023-04-09T15:08:32.423Z,27.63
2023-04-09T15:11:02.554Z,27.54
2023-04-09T15:13:35.807Z,28.97
2023-04-09T15:16:06.188Z,29.74
2023-04-09T15:18:37.687Z,28.18
2023-04-09T15:21:08.890Z,27.47
2023-04-09T15:23:39.778Z,27.41
2023-04-09T15:26:10.058Z,27.21
2023-04-09T15:28:42.774Z,28.26
2023-04-09T15:31:12.970Z,27.51
2023-04-09T15:33:45.872Z,26.88
2023-04-09T15:36:15.885Z,25.83
2023-04-09T15:38:46.001Z,25.21
2023-04-09T15:41:17.174Z,26.47
2023-04-09T15:43:49.784Z,27.06
2023-04-09T15:46:20.072Z,26.83
2023-04-09T15:48:50.529Z,27.23
2023-04-09T15:51:20.652Z,28.64
2023-04-09T15:53:50.768Z,29.68
2023-04-09T15:56:21.350Z,29.12
2023-04-09T15:58:54.440Z,29.09
2023-04-09T16:01:24.675Z,27.91
2023-04-09T16:03:55.843Z,28.92
2023-04-09T16:06:26.374Z,28.41
2023-04-09T16:08:56.988Z,28.16
2023-04-09T16:11:26.932Z,28.18
2023-04-09T16:13:59.909Z,28.70
2023-04-09T16:16:30.059Z,28.17
2023-04-09T16:19:01.190Z,27.56
2023-04-09T16:21:31.291Z,27.62
2023-04-09T16:24:01.456Z,27.23
2023-04-09T16:26:31.703Z,27.69
2023-04-09T16:29:04.722Z,27.94
2023-04-09T16:31:35.251Z,28.85
2023-04-09T16:34:05.660Z,28.85
2023-04-09T16:36:37.908Z,29.52
2023-04-09T16:39:08.285Z,29.20
2023-04-09T16:41:38.472Z,29.38
2023-04-09T16:44:11.129Z,30.07
2023-04-09T16:46:41.256Z,29.91
2023-04-09T16:49:11.223Z,29.01
2023-04-09T16:51:41.289Z,30.32
2023-04-09T16:54:11.432Z,29.46
2023-04-09T16:56:41.968Z,28.73
2023-04-09T16:59:18.105Z,30.48
2023-04-09T17:01:49.377Z,30.92
2023-04-09T17:04:19.933Z,31.69
2023-04-09T17:06:50.084Z,32.81
2023-04-09T17:09:20.341Z,34.17
2023-04-09T17:11:53.128Z,33.79
2023-04-09T17:14:27.666Z,34.67
2023-04-09T17:16:57.622Z,36.86
2023-04-09T17:19:28.019Z,39.23
2023-04-09T17:21:58.544Z,40.65
2023-04-09T17:24:29.259Z,41.34
2023-04-09T17:27:00.102Z,42.30
2023-04-09T17:29:33.302Z,43.04
2023-04-09T17:32:03.272Z,43.86
2023-04-09T17:34:33.627Z,44.30
2023-04-09T17:37:03.671Z,44.62
2023-04-09T17:39:34.343Z,44.42
2023-04-09T17:42:05.148Z,44.64
2023-04-09T17:44:38.602Z,45.37
2023-04-09T17:47:09.649Z,46.38
2023-04-09T17:49:39.763Z,46.32
2023-04-09T17:52:09.760Z,46.72
2023-04-09T17:54:40.280Z,47.22
2023-04-09T17:57:11.000Z,47.84
2023-04-09T17:59:43.882Z,48.29
2023-04-09T18:02:14.308Z,49.17
2023-04-09T18:04:44.911Z,49.39
2023-04-09T18:07:15.082Z,50.10
2023-04-09T18:09:45.638Z,50.39
2023-04-09T18:12:16.202Z,50.56
2023-04-09T18:14:50.515Z,50.64
2023-04-09T18:17:20.781Z,50.75
2023-04-09T18:19:51.291Z,50.67
2023-04-09T18:22:21.438Z,51.17
2023-04-09T18:24:52.354Z,51.99
2023-04-09T18:27:22.643Z,52.63
2023-04-09T18:29:56.072Z,53.21
2023-04-09T18:32:27.162Z,53.66
2023-04-09T18:34:57.593Z,54.33
2023-04-09T18:37:28.134Z,54.44
2023-04-09T18:40:00.217Z,54.86
2023-04-09T18:42:31.919Z,55.23
2023-04-09T18:45:04.760Z,56.51
2023-04-09T18:47:34.988Z,57.59
2023-04-09T18:50:05.464Z,59.48
2023-04-09T18:52:38.672Z,62.41
2023-04-09T18:55:09.957Z,64.30
2023-04-09T18:57:40.103Z,66.78
2023-04-09T19:00:15.096Z,69.97
2023-04-09T19:02:45.654Z,70.61
2023-04-09T19:05:16.024Z,72.62
2023-04-09T19:07:46.363Z,73.56
2023-04-09T19:10:16.595Z,76.14
2023-04-09T19:12:51.106Z,75.90
2023-04-09T19:15:26.266Z,77.57
2023-04-09T19:17:56.689Z,79.44
2023-04-09T19:20:27.371Z,80.04
2023-04-09T19:22:58.559Z,79.42
2023-04-09T19:25:28.928Z,80.34
2023-04-09T19:27:59.071Z,80.33
2023-04-09T19:30:32.139Z,79.76
2023-04-09T19:33:02.428Z,79.21
2023-04-09T19:35:35.932Z,79.91
2023-04-09T19:38:06.694Z,80.07
2023-04-09T19:40:37.306Z,80.46
2023-04-09T19:43:07.748Z,80.95
2023-04-09T19:45:42.586Z,80.65
2023-04-09T19:48:13.052Z,81.84
2023-04-09T19:50:44.173Z,81.93
2023-04-09T19:53:14.766Z,83.18
2023-04-09T19:55:45.484Z,83.27
2023-04-09T19:58:16.047Z,83.41
2023-04-09T20:00:50.050Z,83.53
2023-04-09T20:03:20.467Z,83.48
2023-04-09T20:05:51.348Z,84.43
2023-04-09T20:08:21.954Z,83.87
2023-04-09T20:10:52.956Z,82.92
2023-04-09T20:13:23.558Z,81.82
2023-04-09T20:15:57.078Z,81.08
2023-04-09T20:18:28.183Z,81.12
2023-04-09T20:20:58.659Z,82.53
2023-04-09T20:23:29.221Z,81.81
2023-04-09T20:25:59.587Z,83.35
2023-04-09T20:28:29.999Z,83.06
2023-04-09T20:31:04.939Z,83.90
2023-04-09T20:33:35.190Z,83.92
2023-04-09T20:36:05.619Z,84.25
2023-04-09T20:38:36.380Z,84.83
2023-04-09T20:41:08.136Z,84.38
2023-04-09T20:43:38.912Z,85.16
2023-04-09T20:46:12.387Z,85.47
2023-04-09T20:48:43.055Z,86.75
2023-04-09T20:51:14.649Z,88.30
2023-04-09T20:53:45.904Z,88.52
2023-04-09T20:56:16.526Z,88.93
2023-04-09T20:58:46.917Z,89.21
2023-04-09T21:01:20.087Z,91.03
2023-04-09T21:03:50.916Z,89.70
2023-04-09T21:06:21.680Z,89.68
2023-04-09T21:08:52.247Z,90.69
2023-04-09T21:11:22.747Z,93.19
2023-04-09T21:13:55.274Z,94.90
2023-04-09T21:16:30.090Z,96.64
2023-04-09T21:19:07.349Z,98.85
2023-04-09T21:21:40.439Z,100.00
2023-04-09T21:24:10.788Z,100.00
2023-04-09T21:26:51.042Z,100.00
2023-04-09T21:29:22.763Z,100.00
2023-04-09T21:31:56.031Z,100.00
2023-04-09T21:34:26.401Z,100.00
2023-04-09T21:36:57.584Z,100.00
2023-04-09T21:39:28.256Z,100.00
2023-04-09T21:41:58.815Z,100.00
2023-04-09T21:44:29.371Z,100.00
2023-04-09T21:47:07.592Z,100.00
2023-04-09T21:49:40.875Z,100.00
2023-04-09T21:52:15.208Z,100.00
2023-04-09T21:54:46.072Z,100.00
2023-04-09T21:57:16.444Z,100.00
2023-04-09T21:59:46.737Z,100.00
2023-04-09T22:02:19.952Z,100.00
2023-04-09T22:04:50.853Z,100.00
2023-04-09T22:07:21.312Z,100.00
2023-04-09T22:09:51.563Z,100.00
2023-04-09T22:12:21.868Z,100.00
2023-04-09T22:14:52.491Z,100.00
2023-04-09T22:17:25.693Z,100.00
2023-04-09T22:19:56.090Z,100.00
2023-04-09T22:22:26.500Z,100.00
2023-04-09T22:24:56.801Z,100.00
2023-04-09T22:27:27.275Z,100.00
2023-04-09T22:29:57.758Z,100.00
2023-04-09T22:32:33.551Z,100.00
2023-04-09T22:35:04.343Z,100.00
2023-04-09T22:37:34.642Z,100.00
2023-04-09T22:40:05.777Z,100.00
2023-04-09T22:42:36.650Z,100.00
2023-04-09T22:45:07.365Z,100.00
2023-04-09T22:47:40.426Z,100.00
2023-04-09T22:50:11.776Z,100.00
2023-04-09T22:52:42.217Z,100.00
2023-04-09T22:55:13.794Z,100.00
2023-04-09T22:57:44.562Z,100.00
2023-04-09T23:00:15.556Z,100.00
2023-04-09T23:02:51.076Z,100.00
2023-04-09T23:05:21.748Z,100.00
2023-04-09T23:07:52.606Z,100.00
2023-04-09T23:10:22.873Z,100.00
2023-04-09T23:12:53.377Z,100.00
2023-04-09T23:15:24.004Z,100.00
2023-04-09T23:17:57.142Z,100.00
2023-04-09T23:20:27.601Z,100.00
2023-04-09T23:22:57.951Z,100.00
2023-04-09T23:25:28.257Z,100.00
2023-04-09T23:27:58.553Z,100.00
2023-04-09T23:30:28.930Z,100.00
2023-04-09T23:33:02.000Z,100.00
2023-04-09T23:35:32.694Z,100.00
2023-04-09T23:38:03.396Z,100.00
2023-04-09T23:40:34.091Z,100.00
2023-04-09T23:43:05.067Z,100.00
2023-04-09T23:45:35.697Z,100.00
2023-04-09T23:48:09.592Z,100.00
2023-04-09T23:50:40.502Z,100.00
2023-04-09T23:53:11.650Z,100.00
2023-04-09T23:55:42.805Z,100.00
2023-04-09T23:58:13.177Z,100.00
